Nome, North Dakota
Current Conditions -  °F | °C
As of 10:15 PM on Wednesday 28 Jan 2015 (Local Time) from KBAC Reporting Station
Light Snow Light Snow  
Wind Chill: 11°   Ceiling: 1100
Heat Index: 27°   Visibility: 10mi
Dew Point: 27°   Wind: 25mph
Humidity: 100%   Direction: 330°NNW
Pressure: 30.06"   Gusts: 37mph
Location:  46.68°N, 97.81°W
Report Text: KBAC 290415Z AUTO 33022G32KT 10SM -SN OVC011 M03/M03 A3006 RMK AO2
Loading
Personal Weather Stations






























Interactive Weather Map New forecast layout! Learn more

10-Day Weather Forecast

Advertisements
Track Severe Weather on mobile